createdAt,value
2022-09-12T00:00:46.978Z,16.81
2022-09-12T00:03:14.315Z,16.85
2022-09-12T00:05:46.687Z,16.87
2022-09-12T00:08:14.991Z,16.77
2022-09-12T00:10:47.232Z,16.78
2022-09-12T00:13:14.132Z,16.74
2022-09-12T00:15:45.041Z,16.74
2022-09-12T00:18:17.209Z,16.77
2022-09-12T00:20:46.485Z,16.71
2022-09-12T00:23:14.162Z,16.75
2022-09-12T00:25:49.251Z,16.68
2022-09-12T00:28:18.006Z,16.70
2022-09-12T00:30:49.320Z,16.74
2022-09-12T00:33:18.371Z,16.75
2022-09-12T00:35:53.298Z,16.80
2022-09-12T00:38:21.608Z,16.78
2022-09-12T00:40:49.914Z,16.80
2022-09-12T00:43:35.551Z,16.77
2022-09-12T00:46:25.170Z,16.71
2022-09-12T00:49:04.134Z,16.64
2022-09-12T00:51:35.419Z,16.60
2022-09-12T00:54:08.506Z,16.56
2022-09-12T00:56:38.032Z,16.55
2022-09-12T00:59:14.667Z,16.49
2022-09-12T01:01:43.772Z,16.59
2022-09-12T01:04:13.515Z,16.45
2022-09-12T01:06:43.384Z,16.47
2022-09-12T01:09:16.026Z,16.48
2022-09-12T01:11:47.092Z,16.32
2022-09-12T01:14:15.855Z,16.37
2022-09-12T01:16:43.762Z,16.32
2022-09-12T01:19:32.422Z,16.37
2022-09-12T01:22:14.480Z,16.35
2022-09-12T01:25:02.663Z,16.41
2022-09-12T01:27:49.329Z,16.29
2022-09-12T01:30:35.105Z,16.23
2022-09-12T01:33:39.490Z,16.27
2022-09-12T01:36:30.906Z,16.19
2022-09-12T01:39:11.008Z,16.15
2022-09-12T01:41:53.031Z,16.14
2022-09-12T01:44:31.965Z,16.19
2022-09-12T01:47:26.113Z,16.11
2022-09-12T01:49:53.456Z,16.07
2022-09-12T01:52:28.156Z,15.99
2022-09-12T01:55:13.194Z,15.92
2022-09-12T01:57:47.340Z,15.81
2022-09-12T02:00:14.861Z,15.86
2022-09-12T02:02:52.247Z,15.92
2022-09-12T02:05:22.271Z,16.00
2022-09-12T02:07:57.746Z,15.96
2022-09-12T02:10:32.642Z,15.97
2022-09-12T02:13:16.236Z,15.85
2022-09-12T02:16:11.053Z,15.78
2022-09-12T02:18:46.710Z,15.72
2022-09-12T02:21:14.774Z,15.70
2022-09-12T02:23:48.489Z,15.70
2022-09-12T02:26:23.810Z,15.63
2022-09-12T02:28:51.428Z,15.57
2022-09-12T02:31:24.480Z,15.64
2022-09-12T02:34:15.479Z,15.62
2022-09-12T02:36:57.987Z,15.46
2022-09-12T02:39:25.300Z,15.44
2022-09-12T02:41:56.268Z,15.51
2022-09-12T02:44:25.839Z,15.39
2022-09-12T02:46:59.322Z,15.40
2022-09-12T02:49:26.556Z,15.36
2022-09-12T02:51:53.632Z,15.22
2022-09-12T02:54:22.101Z,15.19
2022-09-12T02:56:49.120Z,15.26
2022-09-12T02:59:20.318Z,15.23
2022-09-12T03:02:24.651Z,15.21
2022-09-12T03:05:12.974Z,15.12
2022-09-12T03:07:49.199Z,15.14
2022-09-12T03:10:33.587Z,15.09
2022-09-12T03:13:19.300Z,15.07
2022-09-12T03:15:49.504Z,15.04
2022-09-12T03:18:46.143Z,15.07
2022-09-12T03:21:25.528Z,15.07
2022-09-12T03:24:18.585Z,14.99
2022-09-12T03:26:55.586Z,14.86
2022-09-12T03:29:24.356Z,14.88
2022-09-12T03:31:54.202Z,14.94
2022-09-12T03:34:23.270Z,14.96
2022-09-12T03:36:50.866Z,14.97
2022-09-12T03:39:18.400Z,14.94
2022-09-12T03:41:45.332Z,14.92
2022-09-12T03:44:12.351Z,14.90
2022-09-12T03:46:39.387Z,14.85
2022-09-12T03:49:06.307Z,14.83
2022-09-12T03:51:33.483Z,14.81
2022-09-12T03:54:00.533Z,14.86
2022-09-12T03:56:27.488Z,14.89
2022-09-12T03:58:54.407Z,14.87
2022-09-12T04:01:21.891Z,14.90
2022-09-12T04:03:51.663Z,14.82
2022-09-12T04:06:25.430Z,14.80
2022-09-12T04:08:54.393Z,14.83
2022-09-12T04:11:23.087Z,14.90
2022-09-12T04:13:51.022Z,14.81
2022-09-12T04:16:18.801Z,14.75
2022-09-12T04:18:47.081Z,14.82
2022-09-12T04:21:18.130Z,14.81
2022-09-12T04:23:45.578Z,14.84
2022-09-12T04:26:14.097Z,14.91
2022-09-12T04:28:42.268Z,14.97
2022-09-12T04:31:13.878Z,15.02
2022-09-12T04:33:40.842Z,15.00
2022-09-12T04:36:10.468Z,14.96
2022-09-12T04:38:38.889Z,14.90
2022-09-12T04:41:26.007Z,14.94
2022-09-12T04:44:04.096Z,14.92
2022-09-12T04:46:34.293Z,14.97
2022-09-12T04:49:01.581Z,14.87
2022-09-12T04:51:31.972Z,14.81
2022-09-12T04:54:01.419Z,14.81
2022-09-12T04:56:30.450Z,14.83
2022-09-12T04:58:59.337Z,14.84
2022-09-12T05:01:32.432Z,14.86
2022-09-12T05:04:00.222Z,14.91
2022-09-12T05:06:34.677Z,14.96
2022-09-12T05:09:04.521Z,15.04
2022-09-12T05:12:00.076Z,15.17
2022-09-12T05:14:21.898Z,15.26
2022-09-12T05:16:49.877Z,15.29
2022-09-12T05:19:18.011Z,15.39
2022-09-12T05:21:45.060Z,15.55
2022-09-12T05:24:12.523Z,15.70
2022-09-12T05:26:39.574Z,15.95
2022-09-12T05:29:08.749Z,16.17
2022-09-12T05:31:36.578Z,16.37
2022-09-12T05:34:09.548Z,16.65
2022-09-12T05:36:37.503Z,17.03
2022-09-12T05:39:05.057Z,17.23
2022-09-12T05:41:34.557Z,17.53
2022-09-12T05:44:04.980Z,17.82
2022-09-12T05:46:37.722Z,18.04
2022-09-12T05:49:07.634Z,18.18
2022-09-12T05:51:38.926Z,18.32
2022-09-12T05:54:08.161Z,18.39
2022-09-12T05:56:39.718Z,18.33
2022-09-12T05:59:12.506Z,18.24
2022-09-12T06:01:43.561Z,18.28
2022-09-12T06:04:11.506Z,18.38
2022-09-12T06:06:45.299Z,18.40
2022-09-12T06:09:15.549Z,18.59
2022-09-12T06:11:43.567Z,18.69
2022-09-12T06:14:14.893Z,18.76
2022-09-12T06:16:42.166Z,18.94
2022-09-12T06:19:20.838Z,19.17
2022-09-12T06:21:49.879Z,19.21
2022-09-12T06:24:18.897Z,19.41
2022-09-12T06:26:47.419Z,19.58
2022-09-12T06:29:18.395Z,19.88
2022-09-12T06:31:46.166Z,19.90
2022-09-12T06:34:15.322Z,20.06
2022-09-12T06:36:47.699Z,20.19
2022-09-12T06:39:19.796Z,20.16
2022-09-12T06:41:47.137Z,20.19
2022-09-12T06:44:16.574Z,20.46
2022-09-12T06:46:45.249Z,20.57
2022-09-12T06:49:12.889Z,20.66
2022-09-12T06:51:42.285Z,20.80
2022-09-12T06:54:12.496Z,20.90
2022-09-12T06:56:39.558Z,20.91
2022-09-12T06:59:07.054Z,21.00
2022-09-12T07:01:34.391Z,20.99
2022-09-12T07:04:03.640Z,20.74
2022-09-12T07:06:35.860Z,20.85
2022-09-12T07:09:05.988Z,20.94
2022-09-12T07:11:36.790Z,21.13
2022-09-12T07:14:05.566Z,21.25
2022-09-12T07:16:33.068Z,21.30
2022-09-12T07:19:02.213Z,21.35
2022-09-12T07:21:30.324Z,21.45
2022-09-12T07:23:58.287Z,21.54
2022-09-12T07:26:29.967Z,21.62
2022-09-12T07:31:52.927Z,21.46
2022-09-12T07:34:20.027Z,21.24
2022-09-12T07:36:47.723Z,20.93
2022-09-12T07:39:14.467Z,20.69
2022-09-12T07:41:42.124Z,20.76
2022-09-12T07:44:13.441Z,21.02
2022-09-12T07:46:41.138Z,20.90
2022-09-12T07:49:08.643Z,20.85
2022-09-12T07:51:36.906Z,21.15
2022-09-12T07:54:11.277Z,21.54
2022-09-12T07:56:39.437Z,21.77
2022-09-12T07:59:10.651Z,21.69
2022-09-12T08:01:38.591Z,21.86
2022-09-12T08:04:09.054Z,22.11
2022-09-12T08:06:37.538Z,21.76
2022-09-12T08:09:07.966Z,21.40
2022-09-12T08:11:36.921Z,21.54
2022-09-12T08:14:06.113Z,21.79
2022-09-12T08:16:33.525Z,22.15
2022-09-12T08:19:02.769Z,22.52
2022-09-12T08:21:32.766Z,22.66
2022-09-12T08:24:03.158Z,22.73
2022-09-12T08:26:31.790Z,22.73
2022-09-12T08:29:00.413Z,22.44
2022-09-12T08:31:29.378Z,22.45
2022-09-12T08:33:58.100Z,22.46
2022-09-12T08:36:29.853Z,22.60
2022-09-12T08:39:02.577Z,22.80
2022-09-12T08:41:35.508Z,22.65
2022-09-12T08:44:20.984Z,22.59
2022-09-12T08:47:06.237Z,22.72
2022-09-12T08:49:45.657Z,22.74
2022-09-12T08:52:19.740Z,22.88
2022-09-12T08:54:48.042Z,23.00
2022-09-12T08:57:16.492Z,22.51
2022-09-12T08:59:45.989Z,22.11
2022-09-12T09:02:52.236Z,21.72
2022-09-12T09:05:49.809Z,21.58
2022-09-12T09:08:47.234Z,22.10
2022-09-12T09:11:40.859Z,22.76
2022-09-12T09:14:51.225Z,23.09
2022-09-12T09:17:50.264Z,23.09
2022-09-12T09:20:45.598Z,23.14
2022-09-12T09:23:27.720Z,23.06
2022-09-12T09:26:16.863Z,22.75
2022-09-12T09:28:53.270Z,22.47
2022-09-12T09:31:23.489Z,22.29
2022-09-12T09:33:54.340Z,22.07
2022-09-12T09:36:47.479Z,21.99
2022-09-12T09:39:42.862Z,22.08
2022-09-12T09:42:28.008Z,22.38
2022-09-12T09:45:00.637Z,22.46
2022-09-12T09:47:27.872Z,22.06
2022-09-12T09:49:55.317Z,21.74
2022-09-12T09:52:28.687Z,21.80
2022-09-12T09:55:02.287Z,22.21
2022-09-12T09:57:35.783Z,22.50
2022-09-12T10:00:27.912Z,22.39
2022-09-12T10:03:34.976Z,22.30
2022-09-12T10:06:23.275Z,21.91
2022-09-12T10:08:51.342Z,21.80
2022-09-12T10:11:23.551Z,21.90
2022-09-12T10:14:01.547Z,21.96
2022-09-12T10:16:35.605Z,22.41
2022-09-12T10:19:04.897Z,22.78
2022-09-12T10:21:40.238Z,23.02
2022-09-12T10:24:29.460Z,22.92
2022-09-12T10:27:20.122Z,22.55
2022-09-12T10:30:18.699Z,22.04
2022-09-12T10:32:51.002Z,22.00
2022-09-12T10:35:42.937Z,22.11
2022-09-12T10:38:32.959Z,22.55
2022-09-12T10:41:09.890Z,22.99
2022-09-12T10:43:39.791Z,23.06
2022-09-12T10:46:16.521Z,22.68
2022-09-12T10:48:45.528Z,22.44
2022-09-12T10:51:28.548Z,22.20
2022-09-12T10:54:02.973Z,22.25
2022-09-12T10:56:36.264Z,22.41
2022-09-12T10:59:07.883Z,22.62
2022-09-12T11:01:45.330Z,22.79
2022-09-12T11:04:25.056Z,23.07
2022-09-12T11:07:29.347Z,23.32
2022-09-12T11:10:02.531Z,23.42
2022-09-12T11:12:58.687Z,23.35
2022-09-12T11:15:25.931Z,23.06
2022-09-12T11:18:35.351Z,22.86
2022-09-12T11:21:24.337Z,22.72
2022-09-12T11:24:09.858Z,22.82
2022-09-12T11:27:04.708Z,22.71
2022-09-12T11:29:55.974Z,22.67
2022-09-12T11:32:54.232Z,22.82
2022-09-12T11:35:33.140Z,23.06
2022-09-12T11:38:35.595Z,23.39
2022-09-12T11:41:11.953Z,23.48
2022-09-12T11:43:59.961Z,23.63
2022-09-12T11:46:48.749Z,23.80
2022-09-12T11:49:40.765Z,23.70
2022-09-12T11:52:16.219Z,23.32
2022-09-12T11:55:06.414Z,22.91
2022-09-12T11:57:50.773Z,22.72
2022-09-12T12:00:31.412Z,22.70
2022-09-12T12:03:17.155Z,22.72
2022-09-12T12:06:00.052Z,22.61
2022-09-12T12:08:30.434Z,22.51
2022-09-12T12:11:01.215Z,22.81
2022-09-12T12:13:37.037Z,23.06
2022-09-12T12:16:17.960Z,23.26
2022-09-12T12:18:45.655Z,23.60
2022-09-12T12:21:32.109Z,23.52
2022-09-12T12:24:08.203Z,23.19
2022-09-12T12:26:44.828Z,23.01
2022-09-12T12:29:17.944Z,22.82
2022-09-12T12:32:00.349Z,22.70
2022-09-12T12:34:33.778Z,22.60
2022-09-12T12:37:19.951Z,22.65
2022-09-12T12:39:54.226Z,22.67
2022-09-12T12:42:36.326Z,22.67
2022-09-12T12:45:09.839Z,22.60
2022-09-12T12:47:36.929Z,22.63
2022-09-12T12:50:21.418Z,22.67
2022-09-12T12:53:00.405Z,22.53
2022-09-12T12:55:29.812Z,22.47
2022-09-12T12:57:59.574Z,22.31
2022-09-12T13:00:30.699Z,22.19
2022-09-12T13:03:02.867Z,22.05
2022-09-12T13:05:38.767Z,22.04
2022-09-12T13:08:11.199Z,22.05
2022-09-12T13:10:39.116Z,22.14
2022-09-12T13:13:08.849Z,22.23
2022-09-12T13:15:36.186Z,22.28
2022-09-12T13:18:11.430Z,22.26
2022-09-12T13:21:15.105Z,22.18
2022-09-12T13:23:43.226Z,22.08
2022-09-12T13:26:28.342Z,22.07
2022-09-12T13:29:24.495Z,22.30
2022-09-12T13:31:58.694Z,22.58
2022-09-12T13:34:38.270Z,22.73
2022-09-12T13:37:30.659Z,22.82
2022-09-12T13:40:24.403Z,22.56
2022-09-12T13:43:09.124Z,22.45
2022-09-12T13:45:39.733Z,22.47
2022-09-12T13:48:14.631Z,22.63
2022-09-12T13:50:57.003Z,22.59
2022-09-12T13:53:28.854Z,22.59
2022-09-12T13:56:00.378Z,22.48
2022-09-12T13:58:30.786Z,22.39
2022-09-12T14:01:08.717Z,22.30
2022-09-12T14:04:07.793Z,22.29
2022-09-12T14:06:52.294Z,22.21
2022-09-12T14:09:27.211Z,22.20
2022-09-12T14:11:54.648Z,22.12
2022-09-12T14:14:35.241Z,22.31
2022-09-12T14:17:20.745Z,22.51
2022-09-12T14:19:51.520Z,22.79
2022-09-12T14:22:19.422Z,22.70
2022-09-12T14:24:52.279Z,22.56
2022-09-12T14:27:27.078Z,22.55
2022-09-12T14:30:02.320Z,22.46
2022-09-12T14:32:30.172Z,22.38
2022-09-12T14:35:12.683Z,22.33
2022-09-12T14:37:40.714Z,22.17
2022-09-12T14:40:20.210Z,22.11
2022-09-12T14:42:52.028Z,22.06
2022-09-12T14:45:29.249Z,22.09
2022-09-12T14:47:58.854Z,22.14
2022-09-12T14:50:30.043Z,22.24
2022-09-12T14:53:19.022Z,22.38
2022-09-12T14:55:54.929Z,22.37
2022-09-12T14:58:22.700Z,22.38
2022-09-12T15:01:06.527Z,22.34
2022-09-12T15:03:52.150Z,22.32
2022-09-12T15:06:30.034Z,22.31
2022-09-12T15:09:03.208Z,22.33
2022-09-12T15:11:30.141Z,22.21
2022-09-12T15:13:57.452Z,22.29
2022-09-12T15:16:24.474Z,22.24
2022-09-12T15:18:51.800Z,22.10
2022-09-12T15:21:20.961Z,21.96
2022-09-12T15:23:52.697Z,21.85
2022-09-12T15:26:26.923Z,21.82
2022-09-12T15:28:54.349Z,21.77
2022-09-12T15:31:32.189Z,21.76
2022-09-12T15:34:01.581Z,21.85
2022-09-12T15:36:31.815Z,22.15
2022-09-12T15:38:59.132Z,21.98
2022-09-12T15:41:37.591Z,21.99
2022-09-12T15:44:06.083Z,21.76
2022-09-12T15:46:33.171Z,21.56
2022-09-12T15:49:00.742Z,21.38
2022-09-12T15:51:28.167Z,21.25
2022-09-12T15:53:55.451Z,21.14
2022-09-12T15:56:23.541Z,21.13
2022-09-12T15:58:59.913Z,21.06
2022-09-12T16:01:28.791Z,20.96
2022-09-12T16:03:57.323Z,20.92
2022-09-12T16:06:24.393Z,20.84
2022-09-12T16:08:51.842Z,20.80
2022-09-12T16:11:24.505Z,20.77
2022-09-12T16:13:55.670Z,20.73
2022-09-12T16:16:29.981Z,20.66
2022-09-12T16:18:57.241Z,20.56
2022-09-12T16:21:28.009Z,20.47
2022-09-12T16:23:55.423Z,20.40
2022-09-12T16:26:22.787Z,20.35
2022-09-12T16:28:59.690Z,20.27
2022-09-12T16:31:27.921Z,20.21
2022-09-12T16:33:55.720Z,20.09
2022-09-12T16:36:26.551Z,19.99
2022-09-12T16:38:54.875Z,19.88
2022-09-12T16:41:25.329Z,19.79
2022-09-12T16:43:54.548Z,19.74
2022-09-12T16:46:31.632Z,19.63
2022-09-12T16:48:59.990Z,19.49
2022-09-12T16:51:32.622Z,19.41
2022-09-12T16:54:00.013Z,19.30
2022-09-12T16:56:26.971Z,19.28
2022-09-12T16:58:54.422Z,19.23
2022-09-12T17:01:24.833Z,19.14
2022-09-12T17:03:58.998Z,19.09
2022-09-12T17:06:28.510Z,19.03
2022-09-12T17:09:01.366Z,18.95
2022-09-12T17:11:32.448Z,18.93
2022-09-12T17:14:05.090Z,18.85
2022-09-12T17:16:38.758Z,18.80
2022-09-12T17:19:07.354Z,18.77
2022-09-12T17:21:36.013Z,18.68
2022-09-12T17:24:04.291Z,18.54
2022-09-12T17:26:32.056Z,18.52
2022-09-12T17:28:59.101Z,18.41
2022-09-12T17:31:26.861Z,18.30
2022-09-12T17:34:01.451Z,18.22
2022-09-12T17:36:29.434Z,18.14
2022-09-12T17:38:56.588Z,18.06
2022-09-12T17:41:26.577Z,18.02
2022-09-12T17:43:57.548Z,17.96
2022-09-12T17:46:31.401Z,17.91
2022-09-12T17:49:00.599Z,17.80
2022-09-12T17:51:31.399Z,17.70
2022-09-12T17:54:06.469Z,17.62
2022-09-12T17:56:35.786Z,17.56
2022-09-12T17:59:03.548Z,17.51
2022-09-12T18:01:49.291Z,17.47
2022-09-12T18:04:17.243Z,17.36
2022-09-12T18:06:49.217Z,17.27
2022-09-12T18:09:19.791Z,17.22
2022-09-12T18:11:48.259Z,17.09
2022-09-12T18:14:17.319Z,17.07
2022-09-12T18:16:45.593Z,17.04
2022-09-12T18:19:13.408Z,16.96
2022-09-12T18:21:40.797Z,16.94
2022-09-12T18:24:08.099Z,16.88
2022-09-12T18:26:35.381Z,16.76
2022-09-12T18:29:02.857Z,16.69
2022-09-12T18:31:30.922Z,16.58
2022-09-12T18:34:02.879Z,16.54
2022-09-12T18:36:31.253Z,16.45
2022-09-12T18:38:59.842Z,16.37
2022-09-12T18:41:29.173Z,16.36
2022-09-12T18:44:04.247Z,16.27
2022-09-12T18:46:33.201Z,16.22
2022-09-12T18:49:02.409Z,16.19
2022-09-12T18:51:36.183Z,16.18
2022-09-12T18:54:08.980Z,16.13
2022-09-12T18:56:38.945Z,16.06
2022-09-12T18:59:07.921Z,16.02
2022-09-12T19:01:37.836Z,15.98
2022-09-12T19:04:07.055Z,15.93
2022-09-12T19:06:43.766Z,15.88
2022-09-12T19:09:13.174Z,15.84
2022-09-12T19:11:49.100Z,15.81
2022-09-12T19:14:18.804Z,15.76
2022-09-12T19:16:46.679Z,15.73
2022-09-12T19:19:13.803Z,15.64
2022-09-12T19:21:42.436Z,15.58
2022-09-12T19:24:10.910Z,15.60
2022-09-12T19:26:39.602Z,15.59
2022-09-12T19:29:08.017Z,15.56
2022-09-12T19:31:35.684Z,15.57
2022-09-12T19:34:05.149Z,15.58
2022-09-12T19:36:44.849Z,15.58
2022-09-12T19:39:13.511Z,15.55
2022-09-12T19:41:40.840Z,15.48
2022-09-12T19:44:08.265Z,15.44
2022-09-12T19:46:35.562Z,15.42
2022-09-12T19:49:03.120Z,15.35
2022-09-12T19:51:30.435Z,15.37
2022-09-12T19:54:15.679Z,15.35
2022-09-12T19:56:42.944Z,15.30
2022-09-12T19:59:10.694Z,15.18
2022-09-12T20:01:38.270Z,15.16
2022-09-12T20:04:07.046Z,15.08
2022-09-12T20:06:34.721Z,15.02
2022-09-12T20:09:01.964Z,15.02
2022-09-12T20:11:31.716Z,15.02
2022-09-12T20:13:59.549Z,14.95
2022-09-12T20:16:29.818Z,14.84
2022-09-12T20:19:02.877Z,14.86
2022-09-12T20:21:32.339Z,14.83
2022-09-12T20:24:05.385Z,14.73
2022-09-12T20:26:33.112Z,14.76
2022-09-12T20:29:01.295Z,14.70
2022-09-12T20:31:28.977Z,14.62
2022-09-12T20:33:56.289Z,14.59
2022-09-12T20:36:23.927Z,14.44
2022-09-12T20:38:54.081Z,14.44
2022-09-12T20:41:22.148Z,14.33
2022-09-12T20:43:53.608Z,14.31
2022-09-12T20:46:22.652Z,14.22
2022-09-12T20:48:51.075Z,14.13
2022-09-12T20:51:19.611Z,14.12
2022-09-12T20:53:47.374Z,14.17
2022-09-12T20:56:15.327Z,14.06
2022-09-12T20:58:44.380Z,14.00
2022-09-12T21:01:12.916Z,14.10
2022-09-12T21:03:41.200Z,14.09
2022-09-12T21:06:10.262Z,14.03
2022-09-12T21:08:37.903Z,14.05
2022-09-12T21:11:06.694Z,14.10
2022-09-12T21:13:34.642Z,14.09
2022-09-12T21:16:04.027Z,14.10
2022-09-12T21:18:32.311Z,14.09
2022-09-12T21:20:59.855Z,14.14
2022-09-12T21:23:28.798Z,14.26
2022-09-12T21:25:56.476Z,14.32
2022-09-12T21:28:23.489Z,14.42
2022-09-12T21:30:51.757Z,14.51
2022-09-12T21:33:21.161Z,14.58
2022-09-12T21:35:49.407Z,14.71
2022-09-12T21:38:17.741Z,14.76
2022-09-12T21:40:45.665Z,14.80
2022-09-12T21:43:14.004Z,14.85
2022-09-12T21:45:41.441Z,14.93
2022-09-12T21:48:08.968Z,14.98
2022-09-12T21:50:36.127Z,15.05
2022-09-12T21:53:03.528Z,15.04
2022-09-12T21:55:31.407Z,15.05
2022-09-12T21:57:58.481Z,15.05
2022-09-12T22:00:26.186Z,15.02
2022-09-12T22:02:54.147Z,15.05
2022-09-12T22:05:25.047Z,15.06
2022-09-12T22:07:53.171Z,15.13
2022-09-12T22:10:20.346Z,15.14
2022-09-12T22:12:47.686Z,15.14
2022-09-12T22:15:39.606Z,15.09
2022-09-12T22:18:02.378Z,15.13
2022-09-12T22:20:29.808Z,15.20
2022-09-12T22:23:15.225Z,15.16
2022-09-12T22:25:42.828Z,15.19
2022-09-12T22:28:10.529Z,15.20
2022-09-12T22:30:38.576Z,15.18
2022-09-12T22:33:05.886Z,15.07
2022-09-12T22:35:33.368Z,14.92
2022-09-12T22:38:00.540Z,14.94
2022-09-12T22:40:27.608Z,14.85
2022-09-12T22:42:55.445Z,14.80
2022-09-12T22:45:23.024Z,14.81
2022-09-12T22:47:50.538Z,14.78
2022-09-12T22:50:17.926Z,14.76
2022-09-12T22:52:45.029Z,14.79
2022-09-12T22:55:12.084Z,14.77
2022-09-12T22:57:42.967Z,14.73
2022-09-12T23:00:14.270Z,14.69
2022-09-12T23:02:41.906Z,14.62
2022-09-12T23:05:09.433Z,14.60
2022-09-12T23:07:36.644Z,14.51
2022-09-12T23:10:04.570Z,14.50
2022-09-12T23:12:32.400Z,14.53
2022-09-12T23:14:59.453Z,14.30
2022-09-12T23:17:26.788Z,14.27
2022-09-12T23:19:54.365Z,14.21
2022-09-12T23:22:21.706Z,14.25
2022-09-12T23:24:48.797Z,14.12
2022-09-12T23:27:16.068Z,14.12
2022-09-12T23:29:43.549Z,14.14
2022-09-12T23:32:10.918Z,14.11
2022-09-12T23:34:38.246Z,14.11
2022-09-12T23:37:05.383Z,14.12
2022-09-12T23:39:32.569Z,14.14
2022-09-12T23:41:59.982Z,14.07
2022-09-12T23:44:27.037Z,14.00
2022-09-12T23:46:54.219Z,13.92
2022-09-12T23:49:21.624Z,13.79
2022-09-12T23:51:48.804Z,13.79
2022-09-12T23:54:16.199Z,13.74
2022-09-12T23:56:43.342Z,13.81
2022-09-12T23:59:10.386Z,13.82
